sensor_id;sensor_type;location;lat;lon;timestamp;pressure;altitude;pressure_sealevel;temperature;humidity
42771;BME280;28426;42.872;25.314;2023-05-01T00:01:59;96870.41;;;7.79;89.38
42771;BME280;28426;42.872;25.314;2023-05-01T00:04:35;96863.94;;;7.82;90.06
42771;BME280;28426;42.872;25.314;2023-05-01T00:07:05;96863.94;;;7.82;90.32
42771;BME280;28426;42.872;25.314;2023-05-01T00:09:36;96872.91;;;7.81;90.84
42771;BME280;28426;42.872;25.314;2023-05-01T00:12:07;96879.38;;;7.78;90.65
42771;BME280;28426;42.872;25.314;2023-05-01T00:14:38;96887.69;;;7.75;90.67
42771;BME280;28426;42.872;25.314;2023-05-01T00:17:09;96890.03;;;7.70;90.75
42771;BME280;28426;42.872;25.314;2023-05-01T00:19:42;96889.91;;;7.63;91.27
42771;BME280;28426;42.872;25.314;2023-05-01T00:22:13;96888.41;;;7.61;91.41
42771;BME280;28426;42.872;25.314;2023-05-01T00:24:44;96891.56;;;7.56;91.92
42771;BME280;28426;42.872;25.314;2023-05-01T00:27:15;96898.22;;;7.52;92.32
42771;BME280;28426;42.872;25.314;2023-05-01T00:29:46;96890.78;;;7.47;91.89
42771;BME280;28426;42.872;25.314;2023-05-01T00:32:17;96893.78;;;7.44;91.72
42771;BME280;28426;42.872;25.314;2023-05-01T00:34:51;96895.28;;;7.38;92.39
42771;BME280;28426;42.872;25.314;2023-05-01T00:37:24;96896.59;;;7.34;92.63
42771;BME280;28426;42.872;25.314;2023-05-01T00:39:55;96904.09;;;7.30;92.55
42771;BME280;28426;42.872;25.314;2023-05-01T00:42:26;96904.41;;;7.27;92.58
42771;BME280;28426;42.872;25.314;2023-05-01T00:44:56;96910.25;;;7.23;92.91
42771;BME280;28426;42.872;25.314;2023-05-01T00:47:29;96912.22;;;7.20;93.13
42771;BME280;28426;42.872;25.314;2023-05-01T00:50:04;96913.56;;;7.16;92.79
42771;BME280;28426;42.872;25.314;2023-05-01T00:52:35;96908.09;;;7.10;93.20
42771;BME280;28426;42.872;25.314;2023-05-01T00:55:07;96919.72;;;7.09;93.09
42771;BME280;28426;42.872;25.314;2023-05-01T00:57:38;96914.56;;;7.07;93.17
42771;BME280;28426;42.872;25.314;2023-05-01T01:00:11;96918.53;;;7.03;93.38
42771;BME280;28426;42.872;25.314;2023-05-01T01:02:43;96917.56;;;6.96;93.64
42771;BME280;28426;42.872;25.314;2023-05-01T01:05:18;96911.59;;;6.85;93.45
42771;BME280;28426;42.872;25.314;2023-05-01T01:07:58;96930.84;;;6.87;94.40
42771;BME280;28426;42.872;25.314;2023-05-01T01:10:38;96928.66;;;6.83;93.93
42771;BME280;28426;42.872;25.314;2023-05-01T01:13:20;96930.81;;;6.79;93.81
42771;BME280;28426;42.872;25.314;2023-05-01T01:16:04;96941.91;;;6.74;94.37
42771;BME280;28426;42.872;25.314;2023-05-01T01:18:42;96949.72;;;6.76;94.28
42771;BME280;28426;42.872;25.314;2023-05-01T01:21:28;96942.09;;;6.73;94.07
42771;BME280;28426;42.872;25.314;2023-05-01T01:27:38;96956.69;;;6.93;97.54
42771;BME280;28426;42.872;25.314;2023-05-01T01:30:32;96951.41;;;6.77;90.93
42771;BME280;28426;42.872;25.314;2023-05-01T01:33:21;96954.00;;;6.52;89.63
42771;BME280;28426;42.872;25.314;2023-05-01T01:36:03;96953.97;;;6.35;92.88
42771;BME280;28426;42.872;25.314;2023-05-01T01:38:41;96955.94;;;6.33;94.62
42771;BME280;28426;42.872;25.314;2023-05-01T01:41:19;96957.91;;;6.31;95.13
42771;BME280;28426;42.872;25.314;2023-05-01T01:43:57;96961.56;;;6.30;94.95
42771;BME280;28426;42.872;25.314;2023-05-01T01:46:36;96965.22;;;6.29;94.84
42771;BME280;28426;42.872;25.314;2023-05-01T01:49:13;96954.94;;;6.26;94.37
42771;BME280;28426;42.872;25.314;2023-05-01T01:51:51;96955.28;;;6.23;94.53
42771;BME280;28426;42.872;25.314;2023-05-01T01:54:26;96956.56;;;6.19;94.33
42771;BME280;28426;42.872;25.314;2023-05-01T01:57:01;96954.25;;;6.15;94.49
42771;BME280;28426;42.872;25.314;2023-05-01T01:59:33;96958.22;;;6.20;100.00
42771;BME280;28426;42.872;25.314;2023-05-01T02:02:06;96959.25;;;6.35;100.00
42771;BME280;28426;42.872;25.314;2023-05-01T02:04:38;96959.59;;;6.32;93.42
42771;BME280;28426;42.872;25.314;2023-05-01T02:07:15;96954.25;;;6.15;91.22
42771;BME280;28426;42.872;25.314;2023-05-01T02:09:48;96962.25;;;5.97;90.23
42771;BME280;28426;42.872;25.314;2023-05-01T02:12:21;96959.06;;;5.85;93.86
42771;BME280;28426;42.872;25.314;2023-05-01T02:14:55;96954.09;;;5.82;95.51
42771;BME280;28426;42.872;25.314;2023-05-01T02:17:31;96965.00;;;5.79;95.96
42771;BME280;28426;42.872;25.314;2023-05-01T02:20:03;96966.94;;;5.77;96.06
42771;BME280;28426;42.872;25.314;2023-05-01T02:22:37;96966.13;;;5.76;96.55
42771;BME280;28426;42.872;25.314;2023-05-01T02:25:11;96963.78;;;5.73;95.65
42771;BME280;28426;42.872;25.314;2023-05-01T02:27:46;96966.66;;;5.80;100.00
42771;BME280;28426;42.872;25.314;2023-05-01T02:30:17;96967.88;;;5.94;100.00
42771;BME280;28426;42.872;25.314;2023-05-01T02:32:48;96961.09;;;5.92;94.26
42771;BME280;28426;42.872;25.314;2023-05-01T02:35:19;96966.13;;;5.76;91.96
42771;BME280;28426;42.872;25.314;2023-05-01T02:37:52;96967.19;;;5.57;91.84
42771;BME280;28426;42.872;25.314;2023-05-01T02:40:24;96969.78;;;5.49;94.70
42771;BME280;28426;42.872;25.314;2023-05-01T02:42:56;96966.78;;;5.44;95.78
42771;BME280;28426;42.872;25.314;2023-05-01T02:45:28;96976.38;;;5.45;95.84
42771;BME280;28426;42.872;25.314;2023-05-01T02:48:00;96976.53;;;5.43;96.58
42771;BME280;28426;42.872;25.314;2023-05-01T02:50:35;96976.84;;;5.40;96.52
42771;BME280;28426;42.872;25.314;2023-05-01T02:53:11;96972.53;;;5.39;96.29
42771;BME280;28426;42.872;25.314;2023-05-01T02:55:48;96985.94;;;5.38;96.08
42771;BME280;28426;42.872;25.314;2023-05-01T02:58:19;96984.31;;;5.45;100.00
42771;BME280;28426;42.872;25.314;2023-05-01T03:00:50;96978.91;;;5.55;100.00
42771;BME280;28426;42.872;25.314;2023-05-01T03:03:21;96986.66;;;5.48;94.04
42771;BME280;28426;42.872;25.314;2023-05-01T03:05:52;96988.72;;;5.36;92.70
42771;BME280;28426;42.872;25.314;2023-05-01T03:08:26;96999.47;;;5.16;91.84
42771;BME280;28426;42.872;25.314;2023-05-01T03:10:57;96993.31;;;5.07;95.28
42771;BME280;28426;42.872;25.314;2023-05-01T03:13:28;96997.75;;;5.07;96.71
42771;BME280;28426;42.872;25.314;2023-05-01T03:15:58;96996.78;;;5.08;97.04
42771;BME280;28426;42.872;25.314;2023-05-01T03:18:31;97001.91;;;5.09;97.44
42771;BME280;28426;42.872;25.314;2023-05-01T03:21:01;96996.63;;;5.09;97.14
42771;BME280;28426;42.872;25.314;2023-05-01T03:23:35;96999.34;;;5.18;100.00
42771;BME280;28426;42.872;25.314;2023-05-01T03:26:06;97001.44;;;5.32;100.00
42771;BME280;28426;42.872;25.314;2023-05-01T03:28:38;97009.75;;;5.38;97.13
42771;BME280;28426;42.872;25.314;2023-05-01T03:31:09;97002.34;;;5.23;93.39
42771;BME280;28426;42.872;25.314;2023-05-01T03:33:40;97001.38;;;5.06;91.36
42771;BME280;28426;42.872;25.314;2023-05-01T03:36:11;97006.09;;;4.94;93.88
42771;BME280;28426;42.872;25.314;2023-05-01T03:38:46;97002.09;;;4.90;96.65
42771;BME280;28426;42.872;25.314;2023-05-01T03:41:49;97002.09;;;4.90;97.26
42771;BME280;28426;42.872;25.314;2023-05-01T03:44:25;97005.72;;;4.89;97.42
42771;BME280;28426;42.872;25.314;2023-05-01T03:46:56;97007.44;;;4.98;100.00
42771;BME280;28426;42.872;25.314;2023-05-01T03:49:28;97012.88;;;5.15;100.00
42771;BME280;28426;42.872;25.314;2023-05-01T03:51:59;97021.03;;;5.21;98.25
42771;BME280;28426;42.872;25.314;2023-05-01T03:54:32;97019.13;;;5.14;94.61
42771;BME280;28426;42.872;25.314;2023-05-01T03:57:22;97021.66;;;4.97;94.19
42771;BME280;28426;42.872;25.314;2023-05-01T03:59:53;97034.34;;;4.93;96.17
42771;BME280;28426;42.872;25.314;2023-05-01T04:02:24;97035.16;;;4.94;97.35
42771;BME280;28426;42.872;25.314;2023-05-01T04:04:55;97031.25;;;4.98;97.57
42771;BME280;28426;42.872;25.314;2023-05-01T04:07:29;97027.19;;;5.04;97.56
42771;BME280;28426;42.872;25.314;2023-05-01T04:10:03;97030.63;;;5.22;100.00
42771;BME280;28426;42.872;25.314;2023-05-01T04:12:40;97042.84;;;5.42;100.00
42771;BME280;28426;42.872;25.314;2023-05-01T04:15:11;97053.13;;;5.45;97.23
42771;BME280;28426;42.872;25.314;2023-05-01T04:17:42;97053.97;;;5.45;96.59
42771;BME280;28426;42.872;25.314;2023-05-01T04:20:15;97056.75;;;5.44;96.85
42771;BME280;28426;42.872;25.314;2023-05-01T04:22:47;97048.66;;;5.45;97.07
42771;BME280;28426;42.872;25.314;2023-05-01T04:25:20;97053.81;;;5.47;97.10
42771;BME280;28426;42.872;25.314;2023-05-01T04:27:56;97064.75;;;5.52;97.03
42771;BME280;28426;42.872;25.314;2023-05-01T04:30:27;97053.69;;;5.57;97.88
42771;BME280;28426;42.872;25.314;2023-05-01T04:32:59;97055.75;;;5.63;97.69
42771;BME280;28426;42.872;25.314;2023-05-01T04:35:31;97063.41;;;5.74;97.88
42771;BME280;28426;42.872;25.314;2023-05-01T04:38:02;97057.38;;;5.82;97.67
42771;BME280;28426;42.872;25.314;2023-05-01T04:40:36;97058.75;;;5.95;99.45
42771;BME280;28426;42.872;25.314;2023-05-01T04:43:06;97068.69;;;6.19;100.00
42771;BME280;28426;42.872;25.314;2023-05-01T04:45:38;97071.75;;;6.41;98.79
42771;BME280;28426;42.872;25.314;2023-05-01T04:48:09;97066.31;;;6.43;93.82
42771;BME280;28426;42.872;25.314;2023-05-01T04:50:40;97068.09;;;6.42;93.49
42771;BME280;28426;42.872;25.314;2023-05-01T04:53:11;97060.69;;;6.46;95.02
42771;BME280;28426;42.872;25.314;2023-05-01T04:55:45;97061.38;;;6.56;95.82
42771;BME280;28426;42.872;25.314;2023-05-01T04:58:17;97064.41;;;6.70;96.24
42771;BME280;28426;42.872;25.314;2023-05-01T05:00:51;97068.09;;;6.93;100.00
42771;BME280;28426;42.872;25.314;2023-05-01T05:03:23;97068.16;;;7.27;100.00
42771;BME280;28426;42.872;25.314;2023-05-01T05:05:54;97073.63;;;7.67;98.61
42771;BME280;28426;42.872;25.314;2023-05-01T05:08:25;97064.47;;;7.94;94.06
42771;BME280;28426;42.872;25.314;2023-05-01T05:11:09;97070.25;;;8.15;91.67
42771;BME280;28426;42.872;25.314;2023-05-01T05:13:48;97077.97;;;8.33;91.03
42771;BME280;28426;42.872;25.314;2023-05-01T05:16:19;97087.56;;;8.59;90.63
42771;BME280;28426;42.872;25.314;2023-05-01T05:18:50;97088.69;;;8.96;95.17
42771;BME280;28426;42.872;25.314;2023-05-01T05:21:21;97094.00;;;9.51;92.92
42771;BME280;28426;42.872;25.314;2023-05-01T05:23:55;97089.97;;;9.94;85.71
42771;BME280;28426;42.872;25.314;2023-05-01T05:26:29;97097.34;;;10.22;83.62
42771;BME280;28426;42.872;25.314;2023-05-01T05:29:03;97098.13;;;10.46;82.95
42771;BME280;28426;42.872;25.314;2023-05-01T05:31:34;97093.78;;;10.90;86.43
42771;BME280;28426;42.872;25.314;2023-05-01T05:34:04;97091.50;;;11.52;85.84
42771;BME280;28426;42.872;25.314;2023-05-01T05:36:35;97090.00;;;12.15;78.13
42771;BME280;28426;42.872;25.314;2023-05-01T05:39:07;97089.94;;;12.37;74.11
42771;BME280;28426;42.872;25.314;2023-05-01T05:41:43;97095.63;;;12.27;72.03
42771;BME280;28426;42.872;25.314;2023-05-01T05:44:14;97098.66;;;12.18;73.90
42771;BME280;28426;42.872;25.314;2023-05-01T05:46:45;97099.03;;;12.43;76.66
42771;BME280;28426;42.872;25.314;2023-05-01T05:49:26;97098.16;;;12.71;73.46
42771;BME280;28426;42.872;25.314;2023-05-01T05:51:57;97098.16;;;12.71;70.17
42771;BME280;28426;42.872;25.314;2023-05-01T05:54:27;97099.31;;;12.55;70.24
42771;BME280;28426;42.872;25.314;2023-05-01T05:57:01;97104.16;;;12.45;73.16
42771;BME280;28426;42.872;25.314;2023-05-01T05:59:33;97101.00;;;12.69;73.75
42771;BME280;28426;42.872;25.314;2023-05-01T06:02:05;97105.25;;;12.99;70.85
42771;BME280;28426;42.872;25.314;2023-05-01T06:04:36;97093.38;;;13.22;69.86
42771;BME280;28426;42.872;25.314;2023-05-01T06:07:07;97104.13;;;13.42;69.17
42771;BME280;28426;42.872;25.314;2023-05-01T06:09:37;97112.66;;;13.86;70.00
42771;BME280;28426;42.872;25.314;2023-05-01T06:12:11;97103.34;;;14.36;65.23
42771;BME280;28426;42.872;25.314;2023-05-01T06:14:43;97109.91;;;14.54;63.86
42771;BME280;28426;42.872;25.314;2023-05-01T06:17:14;97113.47;;;14.41;62.33
42771;BME280;28426;42.872;25.314;2023-05-01T06:19:45;97115.09;;;14.49;64.57
42771;BME280;28426;42.872;25.314;2023-05-01T06:22:17;97122.69;;;14.79;63.89
42771;BME280;28426;42.872;25.314;2023-05-01T06:25:11;97124.91;;;14.96;60.49
42771;BME280;28426;42.872;25.314;2023-05-01T06:27:44;97127.19;;;14.92;59.10
42771;BME280;28426;42.872;25.314;2023-05-01T06:30:16;97125.88;;;15.08;60.50
42771;BME280;28426;42.872;25.314;2023-05-01T06:32:49;97131.25;;;15.47;62.50
42771;BME280;28426;42.872;25.314;2023-05-01T06:35:21;97128.91;;;15.97;61.66
42771;BME280;28426;42.872;25.314;2023-05-01T06:37:55;97129.84;;;16.91;56.54
42771;BME280;28426;42.872;25.314;2023-05-01T06:40:27;97126.59;;;18.35;54.31
42771;BME280;28426;42.872;25.314;2023-05-01T06:43:01;97123.94;;;19.88;50.82
42771;BME280;28426;42.872;25.314;2023-05-01T06:45:32;97136.22;;;21.26;46.24
42771;BME280;28426;42.872;25.314;2023-05-01T06:48:06;97135.31;;;22.63;41.06
42771;BME280;28426;42.872;25.314;2023-05-01T06:50:40;97134.13;;;23.76;39.19
42771;BME280;28426;42.872;25.314;2023-05-01T06:53:11;97129.75;;;24.64;36.13
42771;BME280;28426;42.872;25.314;2023-05-01T06:55:43;97135.28;;;25.30;34.69
42771;BME280;28426;42.872;25.314;2023-05-01T06:58:17;97141.47;;;25.96;33.53
42771;BME280;28426;42.872;25.314;2023-05-01T07:00:52;97140.09;;;26.34;33.01
42771;BME280;28426;42.872;25.314;2023-05-01T07:03:24;97144.31;;;26.50;32.09
42771;BME280;28426;42.872;25.314;2023-05-01T07:05:56;97138.50;;;26.57;30.96
42771;BME280;28426;42.872;25.314;2023-05-01T07:08:27;97143.31;;;26.71;30.50
42771;BME280;28426;42.872;25.314;2023-05-01T07:10:59;97147.50;;;26.87;30.46
42771;BME280;28426;42.872;25.314;2023-05-01T07:13:33;97144.41;;;26.99;30.21
42771;BME280;28426;42.872;25.314;2023-05-01T07:16:05;97146.09;;;26.95;29.62
42771;BME280;28426;42.872;25.314;2023-05-01T07:18:36;97151.44;;;27.06;29.50
42771;BME280;28426;42.872;25.314;2023-05-01T07:21:08;97149.75;;;27.10;30.04
42771;BME280;28426;42.872;25.314;2023-05-01T07:23:40;97156.19;;;27.19;29.43
42771;BME280;28426;42.872;25.314;2023-05-01T07:26:11;97158.22;;;27.33;29.39
42771;BME280;28426;42.872;25.314;2023-05-01T07:28:44;97153.22;;;27.40;29.22
42771;BME280;28426;42.872;25.314;2023-05-01T07:31:15;97158.34;;;27.47;28.84
42771;BME280;28426;42.872;25.314;2023-05-01T07:33:47;97163.63;;;27.62;29.07
42771;BME280;28426;42.872;25.314;2023-05-01T07:36:20;97162.88;;;27.76;27.90
42771;BME280;28426;42.872;25.314;2023-05-01T07:38:52;97149.25;;;27.90;28.30
42771;BME280;28426;42.872;25.314;2023-05-01T07:41:25;97164.38;;;28.06;27.47
42771;BME280;28426;42.872;25.314;2023-05-01T07:44:00;97158.91;;;28.20;27.95
42771;BME280;28426;42.872;25.314;2023-05-01T07:46:31;97162.19;;;28.23;27.42
42771;BME280;28426;42.872;25.314;2023-05-01T07:49:04;97153.69;;;27.86;26.77
42771;BME280;28426;42.872;25.314;2023-05-01T07:51:35;97154.16;;;27.30;27.78
42771;BME280;28426;42.872;25.314;2023-05-01T07:54:06;97160.13;;;27.13;27.95
42771;BME280;28426;42.872;25.314;2023-05-01T07:56:38;97164.53;;;27.09;27.96
42771;BME280;28426;42.872;25.314;2023-05-01T07:59:12;97153.59;;;27.09;26.94
42771;BME280;28426;42.872;25.314;2023-05-01T08:01:44;97163.56;;;27.24;27.98
42771;BME280;28426;42.872;25.314;2023-05-01T08:04:15;97158.44;;;27.17;28.07
42771;BME280;28426;42.872;25.314;2023-05-01T08:06:49;97154.63;;;27.13;28.14
42771;BME280;28426;42.872;25.314;2023-05-01T08:09:20;97147.06;;;27.05;28.96
42771;BME280;28426;42.872;25.314;2023-05-01T08:11:51;97154.50;;;27.23;29.47
42771;BME280;28426;42.872;25.314;2023-05-01T08:14:25;97157.06;;;27.39;28.75
42771;BME280;28426;42.872;25.314;2023-05-01T08:16:57;97157.44;;;27.51;29.33
42771;BME280;28426;42.872;25.314;2023-05-01T08:19:28;97154.44;;;27.72;29.13
42771;BME280;28426;42.872;25.314;2023-05-01T08:21:59;97161.34;;;27.89;28.70
42771;BME280;28426;42.872;25.314;2023-05-01T08:24:30;97166.72;;;28.13;28.56
42771;BME280;28426;42.872;25.314;2023-05-01T08:27:02;97161.00;;;28.10;27.64
42771;BME280;28426;42.872;25.314;2023-05-01T08:29:35;97167.31;;;27.91;28.17
42771;BME280;28426;42.872;25.314;2023-05-01T08:32:07;97168.31;;;27.57;29.42
42771;BME280;28426;42.872;25.314;2023-05-01T08:34:38;97169.31;;;27.22;30.44
42771;BME280;28426;42.872;25.314;2023-05-01T08:37:09;97169.41;;;26.87;30.91
42771;BME280;28426;42.872;25.314;2023-05-01T08:39:41;97165.97;;;26.47;31.12
42771;BME280;28426;42.872;25.314;2023-05-01T08:42:12;97172.28;;;26.07;31.56
42771;BME280;28426;42.872;25.314;2023-05-01T08:44:47;97171.50;;;25.62;30.87
42771;BME280;28426;42.872;25.314;2023-05-01T08:47:20;97169.19;;;25.18;32.03
42771;BME280;28426;42.872;25.314;2023-05-01T08:49:52;97164.63;;;24.88;32.91
42771;BME280;28426;42.872;25.314;2023-05-01T08:52:26;97170.94;;;24.62;33.35
42771;BME280;28426;42.872;25.314;2023-05-01T08:54:59;97172.59;;;24.42;33.23
42771;BME280;28426;42.872;25.314;2023-05-01T08:57:31;97169.88;;;24.27;33.46
42771;BME280;28426;42.872;25.314;2023-05-01T09:00:07;97178.59;;;24.13;33.94
42771;BME280;28426;42.872;25.314;2023-05-01T09:02:41;97167.94;;;24.01;33.22
42771;BME280;28426;42.872;25.314;2023-05-01T09:05:18;97162.16;;;23.77;33.11
42771;BME280;28426;42.872;25.314;2023-05-01T09:07:49;97162.66;;;23.53;33.51
42771;BME280;28426;42.872;25.314;2023-05-01T09:10:20;97158.84;;;23.44;33.68
42771;BME280;28426;42.872;25.314;2023-05-01T09:12:54;97159.34;;;23.41;34.07
42771;BME280;28426;42.872;25.314;2023-05-01T09:15:29;97165.13;;;23.49;34.15
42771;BME280;28426;42.872;25.314;2023-05-01T09:18:00;97158.91;;;23.64;33.42
42771;BME280;28426;42.872;25.314;2023-05-01T09:20:32;97162.72;;;23.69;33.22
42771;BME280;28426;42.872;25.314;2023-05-01T09:23:04;97163.25;;;23.71;33.05
42771;BME280;28426;42.872;25.314;2023-05-01T09:25:36;97168.44;;;23.62;32.72
42771;BME280;28426;42.872;25.314;2023-05-01T09:28:08;97170.00;;;23.52;32.78
42771;BME280;28426;42.872;25.314;2023-05-01T09:30:42;97162.91;;;23.36;32.48
42771;BME280;28426;42.872;25.314;2023-05-01T09:33:14;97162.00;;;23.20;32.63
42771;BME280;28426;42.872;25.314;2023-05-01T09:35:50;97161.38;;;23.07;33.19
42771;BME280;28426;42.872;25.314;2023-05-01T09:38:23;97163.75;;;22.93;33.14
42771;BME280;28426;42.872;25.314;2023-05-01T09:41:02;97166.91;;;22.69;32.50
42771;BME280;28426;42.872;25.314;2023-05-01T09:43:34;97169.16;;;22.45;33.21
42771;BME280;28426;42.872;25.314;2023-05-01T09:46:09;97166.84;;;22.26;33.88
42771;BME280;28426;42.872;25.314;2023-05-01T09:48:40;97175.94;;;22.10;33.47
42771;BME280;28426;42.872;25.314;2023-05-01T09:51:24;97164.31;;;21.87;34.46
42771;BME280;28426;42.872;25.314;2023-05-01T09:53:57;97168.88;;;21.81;34.84
42771;BME280;28426;42.872;25.314;2023-05-01T09:56:30;97171.38;;;21.88;35.06
42771;BME280;28426;42.872;25.314;2023-05-01T09:59:14;97172.97;;;22.11;35.48
42771;BME280;28426;42.872;25.314;2023-05-01T10:01:49;97168.59;;;22.43;35.47
42771;BME280;28426;42.872;25.314;2023-05-01T10:04:29;97165.50;;;22.62;34.93
42771;BME280;28426;42.872;25.314;2023-05-01T10:07:10;97172.84;;;22.66;35.01
42771;BME280;28426;42.872;25.314;2023-05-01T10:09:43;97164.88;;;22.54;35.18
42771;BME280;28426;42.872;25.314;2023-05-01T10:12:22;97164.78;;;22.44;35.69
42771;BME280;28426;42.872;25.314;2023-05-01T10:14:55;97166.66;;;22.38;35.90
42771;BME280;28426;42.872;25.314;2023-05-01T10:17:42;97164.41;;;22.30;35.08
42771;BME280;28426;42.872;25.314;2023-05-01T10:20:13;97165.38;;;22.13;35.53
42771;BME280;28426;42.872;25.314;2023-05-01T10:22:45;97158.94;;;21.92;35.30
42771;BME280;28426;42.872;25.314;2023-05-01T10:25:16;97164.47;;;21.75;36.55
42771;BME280;28426;42.872;25.314;2023-05-01T10:27:49;97165.69;;;21.62;37.80
42771;BME280;28426;42.872;25.314;2023-05-01T10:30:21;97165.06;;;21.54;39.63
42771;BME280;28426;42.872;25.314;2023-05-01T10:32:57;97165.50;;;21.46;40.91
42771;BME280;28426;42.872;25.314;2023-05-01T10:35:33;97170.31;;;21.39;42.76
42771;BME280;28426;42.872;25.314;2023-05-01T10:38:06;97157.75;;;21.33;43.91
42771;BME280;28426;42.872;25.314;2023-05-01T10:40:46;97163.13;;;21.27;45.51
42771;BME280;28426;42.872;25.314;2023-05-01T10:43:20;97156.56;;;21.23;46.25
42771;BME280;28426;42.872;25.314;2023-05-01T10:45:53;97158.78;;;21.26;47.26
42771;BME280;28426;42.872;25.314;2023-05-01T10:48:54;97157.31;;;21.41;48.69
42771;BME280;28426;42.872;25.314;2023-05-01T10:51:26;97147.44;;;21.57;47.07
42771;BME280;28426;42.872;25.314;2023-05-01T10:54:21;97156.13;;;21.81;46.89
42771;BME280;28426;42.872;25.314;2023-05-01T10:56:57;97154.38;;;21.98;44.91
42771;BME280;28426;42.872;25.314;2023-05-01T11:02:39;97148.47;;;22.06;44.67
42771;BME280;28426;42.872;25.314;2023-05-01T11:05:13;97153.59;;;22.02;43.94
42771;BME280;28426;42.872;25.314;2023-05-01T11:10:56;97156.16;;;21.87;44.72
42771;BME280;28426;42.872;25.314;2023-05-01T11:13:54;97157.47;;;21.79;45.67
42771;BME280;28426;42.872;25.314;2023-05-01T11:16:42;97158.72;;;21.71;44.69
42771;BME280;28426;42.872;25.314;2023-05-01T11:19:45;97165.69;;;21.62;44.73
42771;BME280;28426;42.872;25.314;2023-05-01T11:22:23;97163.41;;;21.53;44.86
42771;BME280;28426;42.872;25.314;2023-05-01T11:24:54;97155.72;;;21.45;45.29
42771;BME280;28426;42.872;25.314;2023-05-01T11:27:26;97151.31;;;21.39;44.89
42771;BME280;28426;42.872;25.314;2023-05-01T11:29:58;97153.94;;;21.34;43.37
42771;BME280;28426;42.872;25.314;2023-05-01T11:32:30;97141.47;;;21.33;43.42
42771;BME280;28426;42.872;25.314;2023-05-01T11:35:02;97134.91;;;21.28;42.75
42771;BME280;28426;42.872;25.314;2023-05-01T11:37:43;97143.94;;;21.34;40.98
42771;BME280;28426;42.872;25.314;2023-05-01T11:40:19;97142.53;;;21.32;39.63
42771;BME280;28426;42.872;25.314;2023-05-01T11:42:59;97142.53;;;21.32;39.42
42771;BME280;28426;42.872;25.314;2023-05-01T11:45:32;97146.91;;;21.33;38.74
42771;BME280;28426;42.872;25.314;2023-05-01T11:48:13;97146.91;;;21.33;37.86
42771;BME280;28426;42.872;25.314;2023-05-01T11:50:45;97138.69;;;21.27;38.02
42771;BME280;28426;42.872;25.314;2023-05-01T11:53:20;97152.75;;;21.24;38.33
42771;BME280;28426;42.872;25.314;2023-05-01T11:55:51;97148.09;;;21.20;38.37
42771;BME280;28426;42.872;25.314;2023-05-01T11:58:32;97142.88;;;21.13;38.17
42771;BME280;28426;42.872;25.314;2023-05-01T12:01:04;97161.22;;;21.06;37.53
42771;BME280;28426;42.872;25.314;2023-05-01T12:03:42;97167.78;;;20.87;36.74
42771;BME280;28426;42.872;25.314;2023-05-01T12:06:14;97166.97;;;20.70;37.07
42771;BME280;28426;42.872;25.314;2023-05-01T12:08:50;97159.34;;;20.49;37.78
42771;BME280;28426;42.872;25.314;2023-05-01T12:11:23;97156.97;;;20.36;37.70
42771;BME280;28426;42.872;25.314;2023-05-01T12:13:55;97157.31;;;20.22;38.58
42771;BME280;28426;42.872;25.314;2023-05-01T12:16:26;97160.09;;;20.10;38.66
42771;BME280;28426;42.872;25.314;2023-05-01T12:18:58;97159.13;;;19.99;39.23
42771;BME280;28426;42.872;25.314;2023-05-01T12:21:30;97162.19;;;19.91;39.37
42771;BME280;28426;42.872;25.314;2023-05-01T12:24:16;97153.97;;;19.86;39.67
42771;BME280;28426;42.872;25.314;2023-05-01T12:26:59;97154.47;;;19.83;40.25
42771;BME280;28426;42.872;25.314;2023-05-01T12:29:38;97147.88;;;19.79;40.04
42771;BME280;28426;42.872;25.314;2023-05-01T12:32:11;97151.66;;;19.78;39.84
42771;BME280;28426;42.872;25.314;2023-05-01T12:34:44;97141.31;;;19.74;40.12
42771;BME280;28426;42.872;25.314;2023-05-01T12:37:15;97143.78;;;19.76;40.76
42771;BME280;28426;42.872;25.314;2023-05-01T12:39:49;97154.69;;;19.81;40.20
42771;BME280;28426;42.872;25.314;2023-05-01T12:42:23;97152.31;;;19.85;40.25
42771;BME280;28426;42.872;25.314;2023-05-01T12:44:58;97156.44;;;19.88;39.86
42771;BME280;28426;42.872;25.314;2023-05-01T12:47:36;97153.47;;;19.89;39.79
42771;BME280;28426;42.872;25.314;2023-05-01T12:50:08;97155.38;;;19.89;39.44
42771;BME280;28426;42.872;25.314;2023-05-01T12:52:40;97155.13;;;19.90;40.20
42771;BME280;28426;42.872;25.314;2023-05-01T12:55:14;97151.34;;;19.91;39.00
42771;BME280;28426;42.872;25.314;2023-05-01T12:57:53;97146.50;;;19.93;39.52
42771;BME280;28426;42.872;25.314;2023-05-01T13:00:25;97154.63;;;19.93;39.69
42771;BME280;28426;42.872;25.314;2023-05-01T13:03:01;97152.75;;;19.94;39.26
42771;BME280;28426;42.872;25.314;2023-05-01T13:05:33;97149.72;;;19.90;39.18
42771;BME280;28426;42.872;25.314;2023-05-01T13:08:05;97157.72;;;19.85;38.52
42771;BME280;28426;42.872;25.314;2023-05-01T13:10:38;97166.28;;;19.77;38.58
42771;BME280;28426;42.872;25.314;2023-05-01T13:13:10;97167.47;;;19.69;39.04
42771;BME280;28426;42.872;25.314;2023-05-01T13:15:41;97164.91;;;19.62;40.49
42771;BME280;28426;42.872;25.314;2023-05-01T13:18:13;97179.41;;;19.56;41.13
42771;BME280;28426;42.872;25.314;2023-05-01T13:20:44;97191.09;;;19.44;40.16
42771;BME280;28426;42.872;25.314;2023-05-01T13:23:15;97194.34;;;19.29;40.69
42771;BME280;28426;42.872;25.314;2023-05-01T13:25:55;97183.09;;;19.08;41.19
42771;BME280;28426;42.872;25.314;2023-05-01T13:28:27;97189.78;;;18.94;41.61
42771;BME280;28426;42.872;25.314;2023-05-01T13:30:59;97195.31;;;18.75;42.16
42771;BME280;28426;42.872;25.314;2023-05-01T13:33:30;97188.16;;;18.57;42.71
42771;BME280;28426;42.872;25.314;2023-05-01T13:36:02;97185.69;;;18.43;43.31
42771;BME280;28426;42.872;25.314;2023-05-01T13:38:53;97181.69;;;18.34;43.63